createdAt,value
2022-10-09T00:01:05.930Z,92397.88
2022-10-09T00:03:33.381Z,92390.25
2022-10-09T00:06:00.218Z,92390.25
2022-10-09T00:08:26.957Z,92390.25
2022-10-09T00:10:53.468Z,92395.81
2022-10-09T00:13:20.233Z,92395.09
2022-10-09T00:15:47.340Z,92388.19
2022-10-09T00:18:17.058Z,92390.97
2022-10-09T00:20:45.577Z,92389.53
2022-10-09T00:23:17.439Z,92388.78
2022-10-09T00:26:01.401Z,92389.53
2022-10-09T00:28:30.803Z,92386.75
2022-10-09T00:30:59.058Z,92389.53
2022-10-09T00:33:25.547Z,92392.31
2022-10-09T00:35:51.990Z,92383.94
2022-10-09T00:38:18.480Z,92383.22
2022-10-09T00:40:44.973Z,92390.84
2022-10-09T00:43:38.208Z,92388.78
2022-10-09T00:46:05.331Z,92388.03
2022-10-09T00:48:33.034Z,92385.25
2022-10-09T00:51:02.081Z,92388.03
2022-10-09T00:53:30.699Z,92388.78
2022-10-09T00:55:58.056Z,92388.03
2022-10-09T00:58:25.854Z,92386.00
2022-10-09T01:00:53.136Z,92383.22
2022-10-09T01:03:19.585Z,92377.63
2022-10-09T01:06:15.969Z,92382.47
2022-10-09T01:08:55.549Z,92375.59
2022-10-09T01:11:40.271Z,92378.38
2022-10-09T01:14:26.055Z,92370.03
2022-10-09T01:17:06.020Z,92367.22
2022-10-09T01:19:40.961Z,92362.97
2022-10-09T01:22:21.268Z,92362.97
2022-10-09T01:25:09.416Z,92371.31
2022-10-09T01:27:37.806Z,92362.97
2022-10-09T01:30:11.444Z,92362.97
2022-10-09T01:32:43.193Z,92360.16
2022-10-09T01:35:12.686Z,92362.97
2022-10-09T01:37:42.255Z,92365.75
2022-10-09T01:40:10.901Z,92365.75
2022-10-09T01:42:38.254Z,92357.38
2022-10-09T01:45:05.068Z,92365.75
2022-10-09T01:47:31.570Z,92360.16
2022-10-09T01:50:03.269Z,92360.16
2022-10-09T01:52:41.896Z,92361.66
2022-10-09T01:55:14.363Z,92356.09
2022-10-09T01:57:49.171Z,92356.09
2022-10-09T02:00:16.307Z,92360.16
2022-10-09T02:02:44.017Z,92356.09
2022-10-09T02:05:15.255Z,92360.16
2022-10-09T02:07:41.757Z,92356.09
2022-10-09T02:10:09.345Z,92356.09
2022-10-09T02:12:40.500Z,92354.59
2022-10-09T02:15:08.748Z,92350.50
2022-10-09T02:17:38.733Z,92349.03
2022-10-09T02:20:15.034Z,92350.50
2022-10-09T02:22:42.073Z,92353.88
2022-10-09T02:25:08.916Z,92353.16
2022-10-09T02:27:36.049Z,92359.47
2022-10-09T02:30:05.701Z,92353.16
2022-10-09T02:32:32.248Z,92346.09
2022-10-09T02:34:58.732Z,92353.16
2022-10-09T02:37:25.206Z,92353.16
2022-10-09T02:39:51.673Z,92354.44
2022-10-09T02:42:18.161Z,92351.66
2022-10-09T02:44:44.641Z,92353.16
2022-10-09T02:47:11.078Z,92353.16
2022-10-09T02:49:37.541Z,92342.75
2022-10-09T02:52:04.345Z,92346.84
2022-10-09T02:54:30.927Z,92351.66
2022-10-09T02:56:57.396Z,92353.16
2022-10-09T02:59:23.833Z,92353.16
2022-10-09T03:01:50.396Z,92358.72
2022-10-09T03:04:16.951Z,92356.66
2022-10-09T03:06:43.413Z,92354.59
2022-10-09T03:09:10.116Z,92360.16
2022-10-09T03:11:36.620Z,92354.59
2022-10-09T03:14:03.092Z,92358.72
2022-10-09T03:16:29.647Z,92352.41
2022-10-09T03:18:56.256Z,92355.94
2022-10-09T03:21:25.340Z,92358.72
2022-10-09T03:23:53.293Z,92364.28
2022-10-09T03:26:22.453Z,92358.72
2022-10-09T03:28:50.680Z,92355.94
2022-10-09T03:31:39.603Z,92355.19
2022-10-09T03:34:05.457Z,92361.50
2022-10-09T03:36:31.913Z,92357.25
2022-10-09T03:38:58.407Z,92350.94
2022-10-09T03:41:24.887Z,92364.28
2022-10-09T03:43:51.348Z,92354.44
2022-10-09T03:46:17.920Z,92358.72
2022-10-09T03:48:44.409Z,92362.81
2022-10-09T03:51:10.948Z,92368.38
2022-10-09T03:53:37.429Z,92364.28
2022-10-09T03:56:03.927Z,92356.53
2022-10-09T03:58:30.501Z,92360.03
2022-10-09T04:00:57.083Z,92364.28
2022-10-09T04:03:24.142Z,92363.56
2022-10-09T04:05:50.644Z,92362.81
2022-10-09T04:08:17.120Z,92365.59
2022-10-09T04:10:43.733Z,92362.81
2022-10-09T04:13:10.249Z,92356.53
2022-10-09T04:15:37.575Z,92361.34
2022-10-09T04:18:05.048Z,92358.72
2022-10-09T04:20:31.526Z,92361.50
2022-10-09T04:22:57.997Z,92357.97
2022-10-09T04:25:24.573Z,92364.28
2022-10-09T04:27:51.016Z,92362.25
2022-10-09T04:30:17.580Z,92364.28
2022-10-09T04:32:44.040Z,92369.88
2022-10-09T04:35:10.509Z,92362.81
2022-10-09T04:37:37.013Z,92358.72
2022-10-09T04:40:04.534Z,92367.81
2022-10-09T04:42:31.226Z,92364.28
2022-10-09T04:44:57.720Z,92369.88
2022-10-09T04:47:24.301Z,92369.88
2022-10-09T04:49:50.780Z,92365.03
2022-10-09T04:52:17.267Z,92364.28
2022-10-09T04:54:43.729Z,92367.81
2022-10-09T04:57:10.276Z,92364.28
2022-10-09T04:59:36.744Z,92365.75
2022-10-09T05:02:03.719Z,92371.31
2022-10-09T05:04:30.552Z,92371.31
2022-10-09T05:06:56.988Z,92374.09
2022-10-09T05:09:23.442Z,92370.59
2022-10-09T05:11:49.923Z,92367.06
2022-10-09T05:14:16.465Z,92370.59
2022-10-09T05:17:08.394Z,92369.88
2022-10-09T05:19:29.342Z,92365.75
2022-10-09T05:21:55.813Z,92365.75
2022-10-09T05:24:22.387Z,92365.75
2022-10-09T05:26:48.825Z,92370.59
2022-10-09T05:29:15.327Z,92368.53
2022-10-09T05:31:48.388Z,92376.91
2022-10-09T05:34:16.005Z,92376.91
2022-10-09T05:36:42.445Z,92374.09
2022-10-09T05:39:08.908Z,92374.09
2022-10-09T05:41:35.401Z,92368.53
2022-10-09T05:44:03.443Z,92371.31
2022-10-09T05:46:30.401Z,92374.09
2022-10-09T05:49:02.182Z,92368.53
2022-10-09T05:51:31.326Z,92367.22
2022-10-09T05:53:59.009Z,92365.75
2022-10-09T05:56:28.948Z,92365.75
2022-10-09T05:59:02.695Z,92360.16
2022-10-09T06:01:33.101Z,92367.22
2022-10-09T06:04:00.729Z,92365.75
2022-10-09T06:06:30.732Z,92365.75
2022-10-09T06:08:57.676Z,92368.53
2022-10-09T06:11:32.176Z,92371.31
2022-10-09T06:14:00.317Z,92376.91
2022-10-09T06:16:30.973Z,92383.94
2022-10-09T06:18:58.725Z,92382.47
2022-10-09T06:21:26.477Z,92386.59
2022-10-09T06:23:55.169Z,92399.19
2022-10-09T06:26:22.625Z,92388.03
2022-10-09T06:28:49.158Z,92399.19
2022-10-09T06:31:22.441Z,92400.66
2022-10-09T06:33:50.522Z,92393.63
2022-10-09T06:36:24.421Z,92394.94
2022-10-09T06:38:51.164Z,92404.75
2022-10-09T06:41:26.040Z,92404.75
2022-10-09T06:43:55.051Z,92407.56
2022-10-09T06:46:24.815Z,92404.75
2022-10-09T06:48:51.556Z,92406.25
2022-10-09T06:51:20.295Z,92415.91
2022-10-09T06:53:52.268Z,92413.13
2022-10-09T06:56:21.160Z,92421.47
2022-10-09T06:58:47.980Z,92415.91
2022-10-09T07:01:15.982Z,92425.75
2022-10-09T07:03:44.848Z,92421.47
2022-10-09T07:06:16.897Z,92428.53
2022-10-09T07:08:45.468Z,92433.38
2022-10-09T07:11:17.380Z,92424.28
2022-10-09T07:13:44.517Z,92436.91
2022-10-09T07:16:11.667Z,92432.63
2022-10-09T07:18:38.907Z,92441.00
2022-10-09T07:21:08.245Z,92440.28
2022-10-09T07:23:36.073Z,92443.06
2022-10-09T07:26:09.741Z,92449.34
2022-10-09T07:28:36.331Z,92442.31
2022-10-09T07:31:04.120Z,92431.91
2022-10-09T07:33:30.653Z,92443.78
2022-10-09T07:35:58.784Z,92443.78
2022-10-09T07:38:25.559Z,92443.06
2022-10-09T07:40:53.097Z,92447.91
2022-10-09T07:43:20.896Z,92446.41
2022-10-09T07:45:47.485Z,92449.19
2022-10-09T07:48:14.148Z,92440.84
2022-10-09T07:50:40.603Z,92442.31
2022-10-09T07:53:08.718Z,92453.47
2022-10-09T07:55:35.952Z,92447.16
2022-10-09T07:58:02.819Z,92441.59
2022-10-09T08:00:29.362Z,92443.63
2022-10-09T08:02:55.879Z,92440.84
2022-10-09T08:05:22.401Z,92443.63
2022-10-09T08:07:48.857Z,92438.06
2022-10-09T08:10:15.358Z,92433.81
2022-10-09T08:12:41.934Z,92440.84
2022-10-09T08:15:08.978Z,92435.28
2022-10-09T08:17:35.433Z,92436.75
2022-10-09T08:20:01.893Z,92435.41
2022-10-09T08:22:28.353Z,92436.75
2022-10-09T08:24:54.825Z,92443.78
2022-10-09T08:27:21.378Z,92442.31
2022-10-09T08:29:47.849Z,92434.13
2022-10-09T08:32:14.289Z,92438.94
2022-10-09T08:34:40.748Z,92436.75
2022-10-09T08:37:07.352Z,92438.06
2022-10-09T08:39:33.793Z,92440.84
2022-10-09T08:42:03.812Z,92445.25
2022-10-09T08:44:41.024Z,92446.28
2022-10-09T08:47:22.269Z,92450.25
2022-10-09T08:50:13.127Z,92454.66
2022-10-09T08:52:46.712Z,92452.47
2022-10-09T08:55:24.697Z,92455.97
2022-10-09T08:57:54.052Z,92454.66
2022-10-09T09:00:23.598Z,92457.59
2022-10-09T09:03:08.479Z,92453.47
2022-10-09T09:05:48.598Z,92453.03
2022-10-09T09:08:35.300Z,92460.81
2022-10-09T09:11:45.820Z,92451.16
2022-10-09T09:14:15.031Z,92452.16
2022-10-09T09:16:48.305Z,92457.28
2022-10-09T09:20:01.115Z,92452.16
2022-10-09T09:22:28.201Z,92449.69
2022-10-09T09:24:57.269Z,92445.72
2022-10-09T09:27:31.485Z,92449.25
2022-10-09T09:30:03.677Z,92449.94
2022-10-09T09:32:31.712Z,92442.91
2022-10-09T09:35:09.086Z,92441.44
2022-10-09T09:37:37.627Z,92442.91
2022-10-09T09:40:35.566Z,92438.09
2022-10-09T09:42:56.710Z,92431.91
2022-10-09T09:45:26.212Z,92426.19
2022-10-09T09:48:11.396Z,92423.25
2022-10-09T09:50:56.415Z,92431.75
2022-10-09T09:53:29.711Z,92432.06
2022-10-09T09:55:56.901Z,92427.94
2022-10-09T09:58:33.691Z,92433.50
2022-10-09T10:01:03.256Z,92419.41
2022-10-09T10:03:31.019Z,92423.53
2022-10-09T10:05:58.212Z,92423.41
2022-10-09T10:08:34.884Z,92418.41
2022-10-09T10:11:17.389Z,92426.63
2022-10-09T10:13:49.370Z,92419.56
2022-10-09T10:16:21.920Z,92417.38
2022-10-09T10:18:48.777Z,92414.44
2022-10-09T10:21:17.673Z,92408.75
2022-10-09T10:24:05.264Z,92410.03
2022-10-09T10:26:58.606Z,92411.38
2022-10-09T10:29:32.313Z,92400.06
2022-10-09T10:32:10.632Z,92404.91
2022-10-09T10:34:43.050Z,92399.78
2022-10-09T10:37:15.694Z,92393.00
2022-10-09T10:40:03.451Z,92390.66
2022-10-09T10:42:44.200Z,92389.03
2022-10-09T10:45:19.276Z,92387.44
2022-10-09T10:47:51.540Z,92374.50
2022-10-09T10:50:20.040Z,92365.69
2022-10-09T10:52:52.696Z,92365.38
2022-10-09T10:55:50.328Z,92362.13
2022-10-09T10:58:25.542Z,92367.25
2022-10-09T11:01:02.335Z,92359.78
2022-10-09T11:03:52.765Z,92354.31
2022-10-09T11:06:25.957Z,92358.91
2022-10-09T11:09:18.451Z,92356.25
2022-10-09T11:12:43.257Z,92359.16
2022-10-09T11:15:37.529Z,92359.63
2022-10-09T11:18:30.032Z,92350.66
2022-10-09T11:21:11.969Z,92344.81
2022-10-09T11:23:58.798Z,92341.69
2022-10-09T11:26:40.417Z,92342.75
2022-10-09T11:29:15.180Z,92337.63
2022-10-09T11:31:45.073Z,92332.50
2022-10-09T11:34:24.846Z,92322.53
2022-10-09T11:36:51.564Z,92330.59
2022-10-09T11:39:23.749Z,92318.56
2022-10-09T11:41:52.880Z,92309.34
2022-10-09T11:44:31.555Z,92317.56
2022-10-09T11:47:32.020Z,92304.94
2022-10-09T11:50:16.907Z,92294.97
2022-10-09T11:53:04.043Z,92297.59
2022-10-09T11:55:33.043Z,92296.16
2022-10-09T11:58:22.683Z,92291.88
2022-10-09T12:00:53.882Z,92288.94
2022-10-09T12:03:38.538Z,92283.25
2022-10-09T12:06:16.757Z,92282.50
2022-10-09T12:08:56.768Z,92276.19
2022-10-09T12:11:24.341Z,92274.75
2022-10-09T12:13:52.357Z,92270.47
2022-10-09T12:16:37.376Z,92266.25
2022-10-09T12:19:13.654Z,92268.28
2022-10-09T12:21:48.628Z,92263.31
2022-10-09T12:24:23.677Z,92257.72
2022-10-09T12:26:53.000Z,92257.00
2022-10-09T12:29:33.516Z,92245.84
2022-10-09T12:32:06.507Z,92245.09
2022-10-09T12:34:37.826Z,92243.66
2022-10-09T12:37:10.110Z,92249.22
2022-10-09T12:39:37.528Z,92242.19
2022-10-09T12:42:04.216Z,92236.63
2022-10-09T12:44:34.929Z,92238.66
2022-10-09T12:47:15.126Z,92237.94
2022-10-09T12:49:41.577Z,92235.13
2022-10-09T12:52:16.416Z,92238.53
2022-10-09T12:54:44.672Z,92237.78
2022-10-09T12:57:16.485Z,92229.28
2022-10-09T12:59:45.965Z,92221.66
2022-10-09T13:02:17.235Z,92220.91
2022-10-09T13:04:56.462Z,92220.91
2022-10-09T13:07:26.402Z,92223.00
2022-10-09T13:10:00.847Z,92216.66
2022-10-09T13:12:29.574Z,92223.69
2022-10-09T13:15:02.502Z,92208.44
2022-10-09T13:17:41.216Z,92205.53
2022-10-09T13:20:16.950Z,92205.94
2022-10-09T13:23:05.201Z,92201.97
2022-10-09T13:25:34.351Z,92206.34
2022-10-09T13:28:02.160Z,92203.97
2022-10-09T13:30:28.678Z,92199.84
2022-10-09T13:32:55.263Z,92194.28
2022-10-09T13:35:21.998Z,92187.41
2022-10-09T13:37:49.148Z,92186.06
2022-10-09T13:40:19.752Z,92190.19
2022-10-09T13:42:54.161Z,92183.41
2022-10-09T13:45:20.690Z,92177.84
2022-10-09T13:47:47.493Z,92179.28
2022-10-09T13:50:15.412Z,92183.56
2022-10-09T13:52:42.140Z,92179.56
2022-10-09T13:55:09.098Z,92176.78
2022-10-09T13:57:35.568Z,92169.88
2022-10-09T14:00:02.362Z,92166.50
2022-10-09T14:02:28.802Z,92167.94
2022-10-09T14:04:55.240Z,92162.06
2022-10-09T14:07:21.711Z,92164.38
2022-10-09T14:09:48.167Z,92170.09
2022-10-09T14:12:14.636Z,92161.00
2022-10-09T14:14:41.077Z,92161.00
2022-10-09T14:17:07.566Z,92162.31
2022-10-09T14:19:34.214Z,92166.44
2022-10-09T14:22:00.692Z,92159.41
2022-10-09T14:24:27.517Z,92163.53
2022-10-09T14:26:53.965Z,92157.81
2022-10-09T14:29:20.547Z,92158.53
2022-10-09T14:31:50.155Z,92150.75
2022-10-09T14:34:16.785Z,92150.75
2022-10-09T14:36:43.313Z,92139.59
2022-10-09T14:39:09.887Z,92139.59
2022-10-09T14:41:37.898Z,92138.84
2022-10-09T14:44:05.042Z,92144.44
2022-10-09T14:46:33.977Z,92132.56
2022-10-09T14:49:07.035Z,92134.63
2022-10-09T14:51:36.984Z,92132.56
2022-10-09T14:54:04.910Z,92131.84
2022-10-09T14:56:31.854Z,92132.56
2022-10-09T14:59:00.379Z,92132.56
2022-10-09T15:01:28.049Z,92127.00
2022-10-09T15:03:54.563Z,92125.50
2022-10-09T15:06:24.233Z,92123.00
2022-10-09T15:09:04.615Z,92120.34
2022-10-09T15:11:33.547Z,92114.91
2022-10-09T15:14:00.020Z,92112.25
2022-10-09T15:16:26.800Z,92112.50
2022-10-09T15:18:54.672Z,92115.56
2022-10-09T15:21:30.365Z,92114.34
2022-10-09T15:23:58.350Z,92116.75
2022-10-09T15:26:26.504Z,92112.59
2022-10-09T15:28:52.979Z,92105.81
2022-10-09T15:31:33.925Z,92107.16
2022-10-09T15:34:01.582Z,92111.41
2022-10-09T15:36:29.845Z,92111.41
2022-10-09T15:38:56.724Z,92109.22
2022-10-09T15:41:29.314Z,92106.28
2022-10-09T15:43:58.685Z,92108.94
2022-10-09T15:46:26.129Z,92106.00
2022-10-09T15:48:52.631Z,92106.00
2022-10-09T15:51:19.964Z,92103.09
2022-10-09T15:53:48.537Z,92101.63
2022-10-09T15:56:17.956Z,92100.16
2022-10-09T15:58:44.427Z,92098.69
2022-10-09T16:01:16.227Z,92095.06
2022-10-09T16:03:43.690Z,92105.47
2022-10-09T16:06:12.500Z,92099.88
2022-10-09T16:08:39.868Z,92111.06
2022-10-09T16:13:41.790Z,92108.13
2022-10-09T16:16:12.132Z,92106.69
2022-10-09T16:18:38.704Z,92110.78
2022-10-09T16:21:11.549Z,92105.19
2022-10-09T16:23:38.203Z,92098.16
2022-10-09T16:26:04.780Z,92109.31
2022-10-09T16:28:32.588Z,92109.31
2022-10-09T16:30:59.573Z,92112.72
2022-10-09T16:33:26.097Z,92118.28
2022-10-09T16:35:52.793Z,92121.78
2022-10-09T16:38:19.326Z,92119.00
2022-10-09T16:41:01.393Z,92120.34
2022-10-09T16:43:28.667Z,92117.56
2022-10-09T16:45:55.122Z,92121.69
2022-10-09T16:48:21.556Z,92123.13
2022-10-09T16:50:48.016Z,92121.69
2022-10-09T16:53:14.481Z,92139.13
2022-10-09T16:55:40.933Z,92133.56
2022-10-09T16:58:07.428Z,92132.84
2022-10-09T17:00:33.918Z,92143.25
2022-10-09T17:03:00.428Z,92153.69
2022-10-09T17:05:26.892Z,92148.84
2022-10-09T17:07:54.403Z,92146.06
2022-10-09T17:10:20.985Z,92155.88
2022-10-09T17:12:47.447Z,92154.41
2022-10-09T17:15:13.986Z,92156.47
2022-10-09T17:17:40.959Z,92148.84
2022-10-09T17:20:07.993Z,92157.81
2022-10-09T17:22:34.481Z,92152.22
2022-10-09T17:25:00.925Z,92156.34
2022-10-09T17:27:27.364Z,92153.69
2022-10-09T17:29:53.873Z,92166.44
2022-10-09T17:32:20.346Z,92156.75
2022-10-09T17:34:46.969Z,92159.53
2022-10-09T17:37:13.531Z,92164.38
2022-10-09T17:39:40.098Z,92166.44
2022-10-09T17:42:06.770Z,92168.50
2022-10-09T17:44:33.312Z,92160.00
2022-10-09T17:47:00.871Z,92168.97
2022-10-09T17:49:27.686Z,92173.06
2022-10-09T17:51:54.563Z,92177.19
2022-10-09T17:54:21.518Z,92170.13
2022-10-09T17:56:48.100Z,92185.41
2022-10-09T17:59:15.686Z,92179.09
2022-10-09T18:01:42.677Z,92181.03
2022-10-09T18:04:15.096Z,92190.13
2022-10-09T18:06:41.542Z,92179.56
2022-10-09T18:09:08.178Z,92178.81
2022-10-09T18:11:34.733Z,92182.22
2022-10-09T18:14:01.623Z,92184.28
2022-10-09T18:16:36.363Z,92175.19
2022-10-09T18:19:07.636Z,92175.94
2022-10-09T18:21:35.139Z,92177.97
2022-10-09T18:24:01.901Z,92180.75
2022-10-09T18:26:28.389Z,92182.81
2022-10-09T18:28:54.953Z,92183.41
2022-10-09T18:31:23.632Z,92173.72
2022-10-09T18:33:50.924Z,92193.13
2022-10-09T18:36:21.091Z,92183.41
2022-10-09T18:38:53.595Z,92176.38
2022-10-09T18:41:21.549Z,92180.47
2022-10-09T18:43:48.722Z,92174.91
2022-10-09T18:46:17.813Z,92167.88
2022-10-09T18:48:44.885Z,92166.53
2022-10-09T18:51:18.278Z,92179.03
2022-10-09T18:53:48.677Z,92179.03
2022-10-09T18:56:18.545Z,92184.59
2022-10-09T18:58:45.497Z,92177.56
2022-10-09T19:01:12.273Z,92183.88
2022-10-09T19:03:38.857Z,92178.88
2022-10-09T19:06:05.698Z,92181.69
2022-10-09T19:08:33.505Z,92181.69
2022-10-09T19:11:00.105Z,92180.94
2022-10-09T19:13:26.807Z,92185.78
2022-10-09T19:15:55.313Z,92185.78
2022-10-09T19:18:22.426Z,92191.34
2022-10-09T19:20:49.384Z,92184.31
2022-10-09T19:23:16.476Z,92194.03
2022-10-09T19:25:51.736Z,92196.94
2022-10-09T19:28:18.825Z,92201.06
2022-10-09T19:30:45.673Z,92199.59
2022-10-09T19:33:12.873Z,92194.75
2022-10-09T19:35:53.504Z,92198.13
2022-10-09T19:38:21.064Z,92205.19
2022-10-09T19:40:47.897Z,92198.88
2022-10-09T19:43:15.741Z,92204.44
2022-10-09T19:45:42.681Z,92197.38
2022-10-09T19:48:09.505Z,92205.19
2022-10-09T19:50:46.309Z,92203.69
2022-10-09T19:53:13.340Z,92208.53
2022-10-09T19:55:39.907Z,92210.63
2022-10-09T19:58:06.783Z,92210.63
2022-10-09T20:00:33.326Z,92206.50
2022-10-09T20:02:59.816Z,92214.84
2022-10-09T20:05:26.481Z,92214.13
2022-10-09T20:07:52.978Z,92212.66
2022-10-09T20:10:19.420Z,92218.25
2022-10-09T20:12:45.866Z,92218.25
2022-10-09T20:15:12.361Z,92217.50
2022-10-09T20:17:38.817Z,92217.50
2022-10-09T20:20:06.096Z,92227.19
2022-10-09T20:22:32.650Z,92222.34
2022-10-09T20:24:59.226Z,92223.06
2022-10-09T20:27:25.690Z,92216.75
2022-10-09T20:29:52.923Z,92223.06
2022-10-09T20:32:19.747Z,92210.47
2022-10-09T20:34:46.239Z,92227.19
2022-10-09T20:37:12.914Z,92226.59
2022-10-09T20:39:39.384Z,92225.28
2022-10-09T20:42:05.890Z,92218.97
2022-10-09T20:44:32.533Z,92220.28
2022-10-09T20:46:59.040Z,92222.34
2022-10-09T20:49:25.573Z,92219.56
2022-10-09T20:51:53.183Z,92222.34
2022-10-09T20:54:21.303Z,92224.41
2022-10-09T20:56:48.533Z,92220.88
2022-10-09T20:59:15.877Z,92220.88
2022-10-09T21:01:42.774Z,92231.31
2022-10-09T21:04:11.119Z,92225.00
2022-10-09T21:06:38.142Z,92225.72
2022-10-09T21:09:06.103Z,92225.72
2022-10-09T21:11:34.679Z,92231.31
2022-10-09T21:14:03.071Z,92229.84
2022-10-09T21:16:29.778Z,92234.69
2022-10-09T21:18:58.715Z,92232.63
2022-10-09T21:21:26.336Z,92233.22
2022-10-09T21:23:54.994Z,92228.38
2022-10-09T21:26:23.280Z,92237.47
2022-10-09T21:28:52.437Z,92239.53
2022-10-09T21:31:28.606Z,92233.94
2022-10-09T21:33:56.209Z,92243.66
2022-10-09T21:36:34.781Z,92241.59
2022-10-09T21:39:01.476Z,92245.09
2022-10-09T21:41:28.057Z,92243.66
2022-10-09T21:43:54.608Z,92243.66
2022-10-09T21:46:21.478Z,92247.03
2022-10-09T21:48:47.948Z,92242.19
2022-10-09T21:51:14.457Z,92239.41
2022-10-09T21:53:41.027Z,92246.28
2022-10-09T21:56:07.579Z,92246.28
2022-10-09T21:58:34.041Z,92247.78
2022-10-09T22:01:02.247Z,92250.56
2022-10-09T22:03:31.648Z,92247.78
2022-10-09T22:05:58.436Z,92253.34
2022-10-09T22:08:25.684Z,92251.88
2022-10-09T22:10:52.395Z,92256.13
2022-10-09T22:13:21.119Z,92253.34
2022-10-09T22:15:50.912Z,92260.38
2022-10-09T22:18:17.915Z,92250.56
2022-10-09T22:20:47.980Z,92250.56
2022-10-09T22:23:14.783Z,92257.44
2022-10-09T22:25:41.349Z,92256.13
2022-10-09T22:28:07.955Z,92254.66
2022-10-09T22:30:36.212Z,92251.88
2022-10-09T22:33:02.814Z,92256.00
2022-10-09T22:35:29.285Z,92256.00
2022-10-09T22:37:57.309Z,92256.00
2022-10-09T22:40:23.838Z,92253.19
2022-10-09T22:42:50.562Z,92256.00
2022-10-09T22:45:17.181Z,92256.00
2022-10-09T22:47:45.998Z,92261.56
2022-10-09T22:50:12.429Z,92256.00
2022-10-09T22:52:38.953Z,92258.63
2022-10-09T22:55:05.970Z,92254.50
2022-10-09T22:57:32.420Z,92261.56
2022-10-09T22:59:58.884Z,92264.34
2022-10-09T23:02:25.346Z,92260.09
2022-10-09T23:04:51.783Z,92260.09
2022-10-09T23:07:18.245Z,92257.28
2022-10-09T23:09:44.709Z,92260.09
2022-10-09T23:12:11.163Z,92251.72
2022-10-09T23:14:37.612Z,92254.50
2022-10-09T23:17:04.086Z,92261.41
2022-10-09T23:19:30.529Z,92258.63
2022-10-09T23:21:57.091Z,92262.72
2022-10-09T23:24:23.549Z,92258.63
2022-10-09T23:26:51.249Z,92269.78
2022-10-09T23:29:19.392Z,92269.03
2022-10-09T23:31:46.313Z,92268.31
2022-10-09T23:34:13.126Z,92273.88
2022-10-09T23:36:39.583Z,92272.44
2022-10-09T23:39:06.954Z,92266.84
2022-10-09T23:41:33.711Z,92272.44
2022-10-09T23:44:00.159Z,92265.50
2022-10-09T23:46:29.549Z,92262.72
2022-10-09T23:48:56.104Z,92268.31
2022-10-09T23:51:25.153Z,92259.81
2022-10-09T23:53:52.325Z,92259.81
2022-10-09T23:56:31.083Z,92262.59
2022-10-09T23:58:59.143Z,92254.25
